| time (UTC) | temp F | wind direction | speed MPH | gust MPH | rain 1hr in | rain 24hr in | rain mn in | humidity % | barometer mb |
| 20260509210323 | 57 | 194 | 3.0 | 7.0 | 0.01 | 0.46 | 0.44 | 94 | 878.0 |
| 20260509205339 | 56 | 215 | 0.0 | 0.0 | 0.01 | 0.48 | 0.44 | 95 | 945.4 |
| 20260509204340 | 56 | 213 | 0.0 | 0.0 | 0.01 | 0.48 | 0.44 | 96 | 969.6 |
| 20260509203325 | 55 | 213 | 0.0 | 0.0 | 0.01 | 0.48 | 0.44 | 96 | 1017.6 |
| 20260509202321 | 55 | 209 | 0.0 | 8.0 | 0.02 | 0.48 | 0.44 | 96 | 1011.2 |
| 20260509201342 | 54 | 190 | 6.0 | 11.0 | 0.02 | 0.48 | 0.44 | 96 | 922.8 |
| 20260509200336 | 54 | 211 | 5.0 | 10.0 | 0.04 | 0.47 | 0.43 | 95 | 1108.6 |
| 20260509195314 | 55 | 254 | 7.0 | 10.0 | 0.05 | 0.47 | 0.43 | 95 | 1035.4 |
| 20260509194342 | 56 | 236 | 4.0 | 8.0 | 0.07 | 0.47 | 0.43 | 95 | 902.8 |
| 20260509193338 | 56 | 224 | 2.0 | 7.0 | 0.08 | 0.47 | 0.43 | 96 | 966.9 |
| 20260509192322 | 55 | 223 | 0.0 | 9.0 | 0.10 | 0.46 | 0.42 | 95 | 907.9 |
| 20260509191324 | 54 | 250 | 6.0 | 18.0 | 0.12 | 0.46 | 0.42 | 96 | 1078.4 |
| 20260509190344 | 54 | 256 | 3.0 | 10.0 | 0.10 | 0.43 | 0.39 | 96 | |
| 20260509185345 | 53 | 245 | 3.0 | 12.0 | 0.10 | 0.42 | 0.38 | 95 | 879.0 |
| 20260509184324 | 53 | 229 | 8.0 | 20.0 | 0.09 | 0.40 | 0.36 | 95 | 976.1 |
| 20260509183320 | 53 | 202 | 9.0 | 19.0 | 0.09 | 0.39 | 0.35 | 94 | 1083.0 |
| 20260509182337 | 53 | 200 | 6.0 | 17.0 | 0.06 | 0.36 | 0.32 | 95 | |
| 20260509181338 | 53 | 202 | 8.0 | 16.0 | 0.05 | 0.34 | 0.30 | 95 | 1068.8 |
| 20260509180323 | 53 | 205 | 12.0 | 16.0 | 0.06 | 0.33 | 0.29 | 94 | 1082.0 |
| 20260509175324 | 54 | 185 | 8.0 | 17.0 | 0.06 | 0.32 | 0.28 | 94 | |
| 20260509174325 | 54 | 202 | 7.0 | 12.0 | 0.07 | 0.31 | 0.27 | 95 | -108.8 |
| 20260509173322 | 54 | 214 | 3.0 | 16.0 | 0.08 | 0.30 | 0.26 | 96 | 803.7 |
| 20260509172321 | 54 | 197 | 8.0 | 14.0 | 0.10 | 0.30 | 0.26 | 95 | |
| 20260509171320 | 53 | 184 | 7.0 | 19.0 | 0.10 | 0.29 | 0.25 | 95 | |
| 20260509170332 | 53 | 211 | 10.0 | 19.0 | 0.10 | 0.27 | 0.23 | 95 | 899.7 |
| 20260509165326 | 53 | 202 | 10.0 | 17.0 | 0.10 | 0.26 | 0.22 | 96 | |
| 20260509164326 | 53 | 191 | 7.0 | 15.0 | 0.09 | 0.24 | 0.20 | 95 | 1050.6 |
| 20260509163324 | 53 | 182 | 9.0 | 15.0 | 0.08 | 0.22 | 0.18 | 95 | 943.7 |
| 20260509162322 | 54 | 195 | 4.0 | 10.0 | 0.07 | 0.20 | 0.16 | 95 | 985.5 |
| 20260509161322 | 54 | 158 | 7.0 | 12.0 | 0.06 | 0.19 | 0.15 | 94 | 1012.3 |
| 20260509160324 | 54 | 209 | 4.0 | 10.0 | 0.05 | 0.17 | 0.13 | 95 | 1009.7 |
| 20260509155323 | 54 | 252 | 3.0 | 11.0 | 0.05 | 0.16 | 0.12 | 95 | 1006.4 |
| 20260509154322 | 54 | 190 | 3.0 | 10.0 | 0.04 | 0.15 | 0.11 | 94 | 847.7 |
| 20260509153322 | 53 | 202 | 7.0 | 12.0 | 0.04 | 0.14 | 0.10 | 94 | 878.8 |
| 20260509152321 | 54 | 161 | 0.0 | 4.0 | 0.03 | 0.13 | 0.09 | 95 | 888.9 |
| 20260509151339 | 55 | 59 | 0.0 | 0.0 | 0.03 | 0.13 | 0.09 | 97 | |
| 20260509150343 | 54 | 59 | 0.0 | 0.0 | 0.03 | 0.12 | 0.08 | 97 | |
| 20260509145325 | 54 | 58 | 0.0 | 0.0 | 0.02 | 0.11 | 0.07 | 97 | 871.6 |
| 20260509144324 | 53 | 59 | 0.0 | 0.0 | 0.03 | 0.11 | 0.07 | 97 | |
| 20260509143323 | 53 | 44 | 0.0 | 0.0 | 0.02 | 0.10 | 0.06 | 97 | 980.3 |
| 20260509142322 | 52 | 44 | 0.0 | 0.0 | 0.03 | 0.10 | 0.06 | 98 | |
| 20260509141339 | 52 | 43 | 0.0 | 0.0 | 0.03 | 0.10 | 0.06 | 97 | |
| 20260509140337 | 52 | 44 | 0.0 | 0.0 | 0.03 | 0.09 | 0.05 | 97 | |
| 20260509135322 | 52 | 43 | 0.0 | 0.0 | 0.03 | 0.09 | 0.05 | 98 | 893.1 |
| 20260509134343 | 52 | 44 | 0.0 | 0.0 | 0.02 | 0.08 | 0.04 | 98 | 999.7 |
| 20260509133321 | 52 | 44 | 0.0 | 0.0 | 0.02 | 0.08 | 0.04 | 98 | 1010.3 |
| 20260509132345 | 52 | 269 | 0.0 | 0.0 | 0.02 | 0.07 | 0.03 | 98 | 1006.2 |
| 20260509131343 | 51 | 269 | 0.0 | 0.0 | 0.02 | 0.07 | 0.03 | 98 | 1010.1 |
| 20260509130340 | 51 | 268 | 0.0 | 0.0 | 0.01 | 0.06 | 0.02 | 98 | 1010.2 |
| 20260509125338 | 51 | 269 | 0.0 | 0.0 | 0.01 | 0.06 | 0.02 | 98 | 1010.1 |
| 20260509124336 | 51 | 269 | 0.0 | 0.0 | 0.01 | 0.06 | 0.02 | 98 | 1011.1 |
| 20260509123329 | 51 | 269 | 0.0 | 0.0 | 0.01 | 0.06 | 0.02 | 98 | 1008.6 |
| 20260509122332 | 51 | 269 | 0.0 | 0.0 | 0.00 | 0.05 | 0.01 | 98 | 1010.2 |
| 20260509121331 | 50 | 269 | 0.0 | 0.0 | 0.00 | 0.05 | 0.01 | 98 | 1010.6 |
| 20260509120330 | 50 | 269 | 0.0 | 0.0 | 0.00 | 0.05 | 0.01 | 98 | 1009.5 |
| 20260509115348 | 50 | 269 | 0.0 | 0.0 | 0.00 | 0.05 | 0.01 | 98 | 1009.6 |
| 20260509114322 | 50 | 269 | 0.0 | 1.0 | 0.00 | 0.05 | 0.01 | 98 | 1009.4 |
| 20260509113321 | 49 | 215 | 0.0 | 0.0 | 0.01 | 0.05 | 0.01 | 98 | 1010.9 |
| 20260509112339 | 49 | 217 | 0.0 | 0.0 | 0.01 | 0.05 | 0.01 | 98 | 1010.3 |
| 20260509111321 | 49 | 217 | 0.0 | 0.0 | 0.01 | 0.05 | 0.01 | 98 | 1011.0 |
| 20260509110347 | 49 | 217 | 0.0 | 0.0 | 0.01 | 0.05 | 0.01 | 98 | 1009.8 |
| 20260509105324 | 49 | 217 | 0.0 | 0.0 | 0.01 | 0.05 | 0.01 | 98 | 1012.1 |
| 20260509104343 | 49 | 217 | 0.0 | 0.0 | 0.01 | 0.05 | 0.01 | 98 | 1031.9 |
| 20260509103346 | 49 | 217 | 0.0 | 0.0 | 0.00 | 0.04 | 0.00 | 98 | 1011.1 |
| 20260509102324 | 49 | 217 | 0.0 | 0.0 | 0.00 | 0.04 | 0.00 | 98 | 1008.1 |
| 20260509101324 | 49 | 217 | 0.0 | 0.0 | 0.00 | 0.04 | 0.00 | 98 | 1011.1 |
| 20260509100343 | 49 | 217 | 0.0 | 0.0 | 0.00 | 0.04 | 0.00 | 98 | 1011.8 |
| 20260509095320 | 49 | 217 | 0.0 | 0.0 | 0.00 | 0.04 | 0.00 | 98 | 1010.5 |
| 20260509094343 | 49 | 217 | 0.0 | 0.0 | 0.00 | 0.04 | 0.00 | 98 | 912.0 |
| 20260509093345 | 49 | 217 | 0.0 | 0.0 | 0.00 | 0.04 | 0.00 | 98 | 911.9 |
| 20260509092324 | 49 | 217 | 0.0 | 0.0 | 0.00 | 0.04 | 0.00 | 98 | 1010.8 |
| 20260509091323 | 49 | 217 | 0.0 | 0.0 | 0.00 | 0.04 | 0.00 | 98 | 1105.4 |
| 20260509090322 | 49 | 217 | 0.0 | 0.0 | 0.00 | 0.04 | 0.00 | 98 | 1010.1 |
| 20260509085340 | 48 | 217 | 0.0 | 0.0 | 0.00 | 0.04 | 0.00 | 98 | 1011.5 |
| 20260509084358 | 48 | 217 | 0.0 | 0.0 | 0.00 | 0.04 | 0.00 | 98 | 1010.0 |
| 20260509083320 | 49 | 217 | 0.0 | 0.0 | 0.00 | 0.04 | 0.00 | 98 | 1010.2 |
| 20260509082322 | 49 | 217 | 0.0 | 0.0 | 0.00 | 0.04 | 0.00 | 98 | |
| 20260509081325 | 49 | 217 | 0.0 | 0.0 | 0.00 | 0.04 | 0.00 | 98 | 879.2 |
| 20260509080324 | 49 | 217 | 0.0 | 0.0 | 0.00 | 0.04 | 0.00 | 98 | 1055.2 |
| 20260509075321 | 49 | 217 | 0.0 | 0.0 | 0.00 | 0.04 | 0.00 | 98 | 989.4 |
| 20260509074321 | 49 | 217 | 0.0 | 0.0 | 0.00 | 0.04 | 0.00 | 98 | 1014.1 |
| 20260509073339 | 49 | 217 | 0.0 | 0.0 | 0.00 | 0.04 | 0.00 | 98 | 1011.0 |
| 20260509072321 | 49 | 217 | 0.0 | 0.0 | 0.00 | 0.04 | 0.00 | 98 | 1010.6 |
| 20260509071324 | 49 | 217 | 0.0 | 0.0 | 0.00 | 0.04 | 0.00 | 98 | 1011.6 |
| 20260509070322 | 49 | 217 | 0.0 | 0.0 | 0.00 | 0.04 | 0.00 | 98 | 1010.8 |
| 20260509065347 | 49 | 217 | 0.0 | 0.0 | 0.00 | 0.05 | 0.00 | 98 | 1011.2 |
| 20260509064344 | 49 | 217 | 0.0 | 0.0 | 0.00 | 0.05 | 0.00 | 98 | 1011.1 |
| 20260509063321 | 49 | 217 | 0.0 | 0.0 | 0.00 | 0.05 | 0.00 | 98 | 1010.9 |
| 20260509062339 | 49 | 217 | 0.0 | 0.0 | 0.00 | 0.05 | 0.00 | 98 | 1010.9 |
| 20260509061323 | 49 | 217 | 0.0 | 0.0 | 0.00 | 0.05 | 0.00 | 98 | 1011.1 |
| 20260509060344 | 49 | 217 | 0.0 | 0.0 | 0.00 | 0.05 | 0.00 | 98 | 1011.2 |
| 20260509055322 | 49 | 217 | 0.0 | 0.0 | 0.00 | 0.05 | 0.00 | 98 | 1011.5 |
| 20260509054321 | 49 | 217 | 0.0 | 0.0 | 0.00 | 0.05 | 0.00 | 98 | 1011.6 |
| 20260509053325 | 49 | 217 | 0.0 | 0.0 | 0.00 | 0.05 | 0.00 | 97 | 1012.0 |
| 20260509052323 | 49 | 217 | 0.0 | 0.0 | 0.00 | 0.05 | 0.00 | 97 | 1011.8 |
| 20260509051322 | 49 | 217 | 0.0 | 0.0 | 0.00 | 0.05 | 0.00 | 97 | 1011.7 |
| 20260509050400 | 49 | 217 | 0.0 | 0.0 | 0.00 | 0.05 | 0.00 | 97 | 1012.8 |
| 20260509045322 | 49 | 217 | 0.0 | 0.0 | 0.00 | 0.05 | 0.00 | 97 | 1011.8 |
| 20260509044325 | 48 | 217 | 0.0 | 0.0 | 0.00 | 0.05 | 0.00 | 97 | 1011.5 |
| 20260509043323 | 48 | 217 | 0.0 | 0.0 | 0.00 | 0.05 | 0.00 | 97 | 1012.4 |
| 20260509042321 | 48 | 217 | 0.0 | 0.0 | 0.00 | 0.05 | 0.00 | 98 | 1011.1 |
| 20260509041340 | 48 | 217 | 0.0 | 0.0 | 0.01 | 0.05 | 0.00 | 97 | 1012.7 |
| 20260509040339 | 49 | 217 | 0.0 | 0.0 | 0.01 | 0.05 | 0.00 | 97 | 1012.8 |
| 20260509035343 | 49 | 217 | 0.0 | 0.0 | 0.01 | 0.05 | 0.05 | 97 | |
| 20260509034325 | 49 | 217 | 0.0 | 0.0 | 0.01 | 0.05 | 0.05 | 97 | 1011.7 |
| 20260509033345 | 49 | 216 | 0.0 | 0.0 | 0.01 | 0.05 | 0.05 | 97 | 1012.2 |
| 20260509032342 | 49 | 216 | 0.0 | 0.0 | 0.01 | 0.05 | 0.05 | 97 | 1011.3 |
| 20260509031345 | 48 | 217 | 0.0 | 0.0 | 0.00 | 0.04 | 0.04 | 97 | 883.3 |
| 20260509030323 | 49 | 217 | 0.0 | 0.0 | 0.00 | 0.04 | 0.04 | 97 | 1012.5 |
| 20260509025321 | 48 | 217 | 0.0 | 0.0 | 0.00 | 0.05 | 0.04 | 97 | 1011.7 |
| 20260509024339 | 48 | 216 | 0.0 | 0.0 | 0.00 | 0.05 | 0.04 | 97 | 1013.8 |
| 20260509023337 | 48 | 217 | 0.0 | 0.0 | 0.00 | 0.05 | 0.04 | 97 | 1012.0 |
| 20260509022326 | 48 | 217 | 0.0 | 0.0 | 0.00 | 0.05 | 0.04 | 97 | 1012.3 |
| 20260509021325 | 48 | 217 | 0.0 | 0.0 | 0.00 | 0.05 | 0.04 | 96 | 1011.7 |
| 20260509020323 | 48 | 217 | 0.0 | 0.0 | 0.00 | 0.05 | 0.04 | 96 | 1011.2 |
| 20260509015322 | 49 | 217 | 0.0 | 0.0 | 0.00 | 0.05 | 0.04 | 96 | 1013.0 |
| 20260509014321 | 49 | 217 | 0.0 | 0.0 | 0.00 | 0.05 | 0.04 | 96 | 1011.3 |
| 20260509013321 | 50 | 217 | 0.0 | 0.0 | 0.00 | 0.05 | 0.04 | 95 | 1012.2 |
| 20260509012400 | 50 | 217 | 0.0 | 0.0 | 0.00 | 0.05 | 0.04 | 95 | 1011.0 |
| 20260509011321 | 51 | 217 | 0.0 | 0.0 | 0.00 | 0.05 | 0.04 | 95 | 1012.3 |
| 20260509010325 | 51 | 217 | 0.0 | 0.0 | 0.00 | 0.05 | 0.04 | 95 | 1011.1 |
| 20260509005325 | 52 | 217 | 0.0 | 0.0 | 0.00 | 0.05 | 0.04 | 95 | 1013.1 |
| 20260509004324 | 52 | 217 | 0.0 | 0.0 | 0.00 | 0.05 | 0.04 | 95 | 1011.1 |
| 20260509003323 | 52 | 217 | 0.0 | 0.0 | 0.00 | 0.05 | 0.04 | 94 | 1010.7 |
| 20260509002321 | 52 | 217 | 0.0 | 0.0 | 0.00 | 0.05 | 0.04 | 94 | 1026.5 |
| 20260509001320 | 51 | 217 | 0.0 | 0.0 | 0.01 | 0.05 | 0.04 | 93 | 1011.3 |
| 20260509000344 | 52 | 217 | 0.0 | 0.0 | 0.01 | 0.05 | 0.04 | 93 | 1032.9 |
| 20260508234347 | 53 | 217 | 0.0 | 0.0 | 0.01 | 0.05 | 0.04 | 92 | 1011.0 |
| 20260508233323 | 53 | 217 | 0.0 | 0.0 | 0.01 | 0.05 | 0.04 | 92 | 1032.5 |
| 20260508232344 | 53 | 217 | 0.0 | 0.0 | 0.01 | 0.05 | 0.04 | 92 | 1010.8 |
| 20260508231320 | 53 | 217 | 0.0 | 0.0 | 0.00 | 0.04 | 0.03 | 91 | 1011.3 |
| 20260508230340 | 53 | 217 | 0.0 | 1.0 | 0.00 | 0.04 | 0.03 | 90 | |
| 20260508225337 | 53 | 217 | 0.0 | 0.0 | 0.00 | 0.04 | 0.03 | 89 | 1012.0 |
| 20260508224345 | 55 | 217 | 0.0 | 3.0 | 0.00 | 0.04 | 0.03 | 83 | 1012.1 |
| 20260508223323 | 56 | 217 | 0.0 | 5.0 | 0.00 | 0.04 | 0.03 | 81 | 1011.2 |
| 20260508222322 | 57 | 217 | 0.0 | 0.0 | 0.00 | 0.04 | 0.03 | 76 | |
| 20260508221327 | 58 | 217 | 0.0 | 0.0 | 0.00 | 0.04 | 0.03 | 69 | 1011.8 |
| 20260508220346 | 58 | 217 | 0.0 | 0.0 | 0.00 | 0.04 | 0.03 | 70 | 1001.8 |
| 20260508215323 | 58 | 217 | 0.0 | 0.0 | 0.00 | 0.04 | 0.03 | 69 | 1009.9 |
| 20260508214323 | 58 | 217 | 0.0 | 1.0 | 0.01 | 0.04 | 0.03 | 69 | 946.3 |
| 20260508213326 | 59 | 217 | 0.0 | 1.0 | 0.01 | 0.04 | 0.03 | 65 | 1010.7 |
| 20260508212325 | 60 | 218 | 0.0 | 0.0 | 0.02 | 0.04 | 0.03 | 66 | 1010.0 |